Time;durP1;ratioP1;P1;durP2;ratioP2;P2;SDS_P1;SDS_P2;PMS_P1;PMS_P2;Temp;Humidity;BMP_temperature;BMP_pressure;BME280_temperature;BME280_humidity;BME280_pressure;Samples;Min_cycle;Max_cycle;Signal;HPM_P1;HPM_P2
2022/06/18 00:00:20;;;;;;;7.35;3.83;;;19.40;99.90;;;;;;4915958;29;20425;-78
2022/06/18 00:02:46;;;;;;;7.30;3.75;;;19.40;99.90;;;;;;4902867;29;20390;-79
2022/06/18 00:05:15;;;;;;;11.27;4.00;;;19.40;99.90;;;;;;4910076;29;20099;-79
2022/06/18 00:07:45;;;;;;;10.02;4.78;;;19.40;99.90;;;;;;4920049;29;20497;-79
2022/06/18 00:10:26;;;;;;;6.85;4.38;;;19.40;99.90;;;;;;4920625;29;20098;-78
2022/06/18 00:15:40;;;;;;;9.45;4.45;;;19.40;99.90;;;;;;4919363;29;20183;-79
2022/06/18 00:18:14;;;;;;;10.38;4.80;;;19.40;99.90;;;;;;4914297;29;20176;-79
2022/06/18 00:20:41;;;;;;;7.90;4.53;;;19.40;99.90;;;;;;4933365;29;20147;-80
2022/06/18 00:23:14;;;;;;;7.95;4.57;;;19.30;99.90;;;;;;4914211;29;20406;-79
2022/06/18 00:25:43;;;;;;;12.85;4.60;;;19.30;99.90;;;;;;4922255;29;20481;-78
2022/06/18 00:28:21;;;;;;;8.68;4.85;;;19.30;99.90;;;;;;4917004;29;20059;-79
2022/06/18 00:30:48;;;;;;;12.55;4.93;;;19.30;99.90;;;;;;4933225;29;20573;-78
2022/06/18 00:33:15;;;;;;;8.05;4.82;;;19.30;99.90;;;;;;4923404;29;20402;-78
2022/06/18 00:35:41;;;;;;;9.85;5.05;;;19.30;99.90;;;;;;4923532;29;20052;-79
2022/06/18 00:38:13;;;;;;;9.40;5.10;;;19.30;99.90;;;;;;4937623;29;20102;-80
2022/06/18 00:40:43;;;;;;;10.05;5.32;;;19.30;99.90;;;;;;4915098;29;20083;-79
2022/06/18 00:43:21;;;;;;;9.68;4.80;;;19.20;99.90;;;;;;4918396;29;20055;-79
2022/06/18 00:45:51;;;;;;;8.63;4.72;;;19.20;99.90;;;;;;4916301;29;20142;-80
2022/06/18 00:48:37;;;;;;;8.40;5.07;;;19.20;99.90;;;;;;4919564;29;20473;-78
2022/06/18 00:51:21;;;;;;;9.52;4.75;;;19.20;99.90;;;;;;4917048;29;20087;-78
2022/06/18 00:53:52;;;;;;;8.93;4.95;;;19.10;99.90;;;;;;4938410;28;20114;-79
2022/06/18 00:56:35;;;;;;;11.75;4.82;;;19.10;99.90;;;;;;4920328;29;20044;-79
2022/06/18 00:59:03;;;;;;;8.15;4.95;;;19.00;99.90;;;;;;4914743;29;20166;-79
2022/06/18 01:01:32;;;;;;;8.38;5.03;;;19.00;99.90;;;;;;4940647;28;20830;-78
2022/06/18 01:03:58;;;;;;;8.93;5.72;;;18.90;99.90;;;;;;4921275;29;20036;-78
2022/06/18 01:06:29;;;;;;;9.45;5.53;;;18.90;99.90;;;;;;4920894;29;20047;-79
2022/06/18 01:09:06;;;;;;;9.50;6.05;;;18.80;99.90;;;;;;4924937;29;20048;-80
2022/06/18 01:11:37;;;;;;;10.15;5.60;;;18.80;99.90;;;;;;4922507;29;20303;-79
2022/06/18 01:14:06;;;;;;;10.02;5.93;;;18.80;99.90;;;;;;4928510;29;20521;-76
2022/06/18 01:16:33;;;;;;;8.95;5.38;;;18.80;99.90;;;;;;4924210;29;20047;-76
2022/06/18 01:19:00;;;;;;;9.85;6.15;;;18.70;99.90;;;;;;4922387;29;20047;-79
2022/06/18 01:21:26;;;;;;;11.23;5.30;;;18.60;99.90;;;;;;4927438;29;20556;-79
2022/06/18 01:24:08;;;;;;;9.40;6.20;;;18.60;99.90;;;;;;4918435;29;20417;-79
2022/06/18 01:26:35;;;;;;;8.80;5.85;;;18.60;99.90;;;;;;4931319;28;20060;-79
2022/06/18 01:29:00;;;;;;;11.60;5.57;;;18.60;99.90;;;;;;4920619;29;20046;-80
2022/06/18 01:31:26;;;;;;;8.55;5.70;;;18.60;99.90;;;;;;4914308;29;20647;-80
2022/06/18 01:33:52;;;;;;;11.48;6.10;;;18.50;99.90;;;;;;4935379;29;20043;-80
2022/06/18 01:36:18;;;;;;;11.07;5.88;;;18.50;99.90;;;;;;4933840;29;20135;-80
2022/06/18 01:38:46;;;;;;;10.13;5.75;;;18.60;99.90;;;;;;4936421;28;20059;-79
2022/06/18 01:44:19;;;;;;;10.82;5.70;;;18.60;99.90;;;;;;4923506;29;20131;-81
2022/06/18 01:46:49;;;;;;;8.87;5.63;;;18.60;99.90;;;;;;4920566;29;20083;-78
2022/06/18 01:49:20;;;;;;;8.95;5.97;;;18.50;99.90;;;;;;4921553;29;20052;-80
2022/06/18 01:51:49;;;;;;;8.82;6.20;;;18.50;99.90;;;;;;4945538;28;20059;-78
2022/06/18 01:54:20;;;;;;;9.27;6.22;;;18.50;99.90;;;;;;4924491;29;20166;-78
2022/06/18 01:56:54;;;;;;;10.30;5.70;;;18.50;99.90;;;;;;4924840;29;20047;-78
2022/06/18 01:59:25;;;;;;;10.38;6.32;;;18.50;99.90;;;;;;4911182;29;20130;-79
2022/06/18 02:01:51;;;;;;;9.40;6.50;;;18.50;99.90;;;;;;4918262;29;20044;-79
2022/06/18 02:04:20;;;;;;;12.52;6.82;;;18.50;99.90;;;;;;4921195;29;20052;-78
2022/06/18 02:06:46;;;;;;;10.73;6.80;;;18.50;99.90;;;;;;4939697;29;20489;-79
2022/06/18 02:09:34;;;;;;;12.20;7.28;;;18.40;99.90;;;;;;4936065;28;20044;-78
2022/06/18 02:12:03;;;;;;;12.00;6.93;;;18.40;99.90;;;;;;4929267;29;20044;-80
2022/06/18 02:14:30;;;;;;;12.70;7.45;;;18.30;99.90;;;;;;4925509;29;20126;-80
2022/06/18 02:16:57;;;;;;;12.38;7.35;;;18.30;99.90;;;;;;4916027;29;20044;-80
2022/06/18 02:19:23;;;;;;;12.45;7.97;;;18.30;99.90;;;;;;4919763;29;20051;-80
2022/06/18 02:21:52;;;;;;;11.95;7.15;;;18.30;99.90;;;;;;4925870;29;20044;-80
2022/06/18 02:24:18;;;;;;;13.38;7.57;;;18.20;99.90;;;;;;4935059;29;20125;-80
2022/06/18 02:26:47;;;;;;;12.50;8.35;;;18.20;99.90;;;;;;4921460;29;20068;-79
2022/06/18 02:29:26;;;;;;;10.35;7.97;;;18.20;99.90;;;;;;4911499;29;20043;-79
2022/06/18 02:31:53;;;;;;;12.40;8.23;;;18.20;99.90;;;;;;4924225;29;20067;-79
2022/06/18 02:34:33;;;;;;;11.38;7.43;;;18.10;99.90;;;;;;4923827;29;20035;-80
2022/06/18 02:37:01;;;;;;;13.50;7.85;;;18.10;99.90;;;;;;4925346;29;20153;-79
2022/06/18 02:39:40;;;;;;;15.05;8.27;;;18.10;99.90;;;;;;4926114;29;20075;-81
2022/06/18 02:42:11;;;;;;;11.15;7.28;;;18.00;99.90;;;;;;4918417;29;20134;-79
2022/06/18 02:44:39;;;;;;;13.57;8.05;;;18.00;99.90;;;;;;4923415;29;20078;-80
2022/06/18 02:47:06;;;;;;;13.90;8.73;;;18.00;99.90;;;;;;4935896;29;20047;-81
2022/06/18 02:49:58;;;;;;;13.82;8.02;;;17.90;99.90;;;;;;4921389;29;20047;-81
2022/06/18 02:52:29;;;;;;;16.05;8.70;;;17.90;99.90;;;;;;4905578;29;20048;-80
2022/06/18 02:55:08;;;;;;;12.73;7.68;;;17.90;99.90;;;;;;4927553;29;20054;-80
2022/06/18 02:57:34;;;;;;;12.10;8.38;;;17.80;99.90;;;;;;4921532;29;20055;-81
2022/06/18 03:00:00;;;;;;;12.50;8.55;;;17.90;99.90;;;;;;4925674;29;20443;-81
2022/06/18 03:02:26;;;;;;;16.77;8.50;;;17.80;99.90;;;;;;4927337;29;20061;-81
2022/06/18 03:04:52;;;;;;;14.75;8.45;;;17.80;99.90;;;;;;4924073;29;20048;-80
2022/06/18 03:07:18;;;;;;;11.27;7.68;;;17.70;99.90;;;;;;4913431;29;20047;-80
2022/06/18 03:12:42;;;;;;;13.60;9.00;;;17.70;99.90;;;;;;4919664;29;20060;-79
2022/06/18 03:15:08;;;;;;;17.23;9.80;;;17.60;99.90;;;;;;4922195;29;20078;-79
2022/06/18 03:17:34;;;;;;;15.40;9.60;;;17.60;99.90;;;;;;4925226;29;20052;-78
2022/06/18 03:20:09;;;;;;;19.42;9.68;;;17.60;99.90;;;;;;4922765;29;20044;-79
2022/06/18 03:22:34;;;;;;;16.30;9.82;;;17.60;99.90;;;;;;4914788;29;20056;-80
2022/06/18 03:25:00;;;;;;;14.85;9.52;;;17.50;99.90;;;;;;4930269;29;20409;-80
2022/06/18 03:27:26;;;;;;;19.17;11.18;;;17.60;99.90;;;;;;4944078;29;20055;-80
2022/06/18 03:29:52;;;;;;;19.33;11.10;;;17.60;99.90;;;;;;4928383;29;20043;-80
2022/06/18 03:32:18;;;;;;;15.70;10.98;;;17.60;99.90;;;;;;4944088;28;20051;-80
2022/06/18 03:34:44;;;;;;;18.45;10.63;;;17.60;99.90;;;;;;4925913;29;20028;-80
2022/06/18 03:37:10;;;;;;;17.33;11.32;;;17.50;99.90;;;;;;4932521;29;20074;-80
2022/06/18 03:39:36;;;;;;;19.83;11.63;;;17.60;99.90;;;;;;4949707;29;20421;-80
2022/06/18 03:42:02;;;;;;;19.23;11.23;;;17.60;99.90;;;;;;4935356;29;20039;-80
2022/06/18 03:44:29;;;;;;;20.67;12.23;;;17.50;99.90;;;;;;4935543;29;20051;-81
2022/06/18 03:46:55;;;;;;;24.63;12.82;;;17.50;99.90;;;;;;4950450;29;20047;-82
2022/06/18 03:49:30;;;;;;;18.48;11.80;;;17.50;99.90;;;;;;4946949;29;20060;-80
2022/06/18 03:51:59;;;;;;;17.40;11.70;;;17.50;99.90;;;;;;4945873;28;20098;-80
2022/06/18 03:54:24;;;;;;;18.38;11.90;;;17.50;99.90;;;;;;4943782;29;20043;-80
2022/06/18 03:56:50;;;;;;;23.20;13.07;;;17.50;99.90;;;;;;4952501;28;20095;-79
2022/06/18 03:59:16;;;;;;;19.25;11.85;;;17.60;99.90;;;;;;4951784;29;20035;-80
2022/06/18 04:01:42;;;;;;;18.77;12.27;;;17.60;99.90;;;;;;4944818;29;20036;-79
2022/06/18 04:04:09;;;;;;;22.98;14.90;;;17.50;99.90;;;;;;4938251;28;20109;-81
2022/06/18 04:06:38;;;;;;;23.48;14.88;;;17.60;99.90;;;;;;4924063;29;20047;-80
2022/06/18 04:09:05;;;;;;;17.63;13.45;;;17.60;99.90;;;;;;4917624;29;20035;-80
2022/06/18 04:11:31;;;;;;;23.83;14.27;;;17.60;99.90;;;;;;4927551;29;20051;-78
2022/06/18 04:13:57;;;;;;;27.80;13.93;;;17.60;99.90;;;;;;4931580;29;20409;-80
2022/06/18 04:16:23;;;;;;;24.00;14.50;;;17.60;99.90;;;;;;4929505;29;20102;-80
2022/06/18 04:18:49;;;;;;;23.65;13.85;;;17.60;99.90;;;;;;4924824;28;20050;-80
2022/06/18 04:21:15;;;;;;;20.10;14.52;;;17.70;99.90;;;;;;4940504;29;20130;-80
2022/06/18 04:23:42;;;;;;;21.92;14.00;;;17.70;99.90;;;;;;4946191;29;20047;-81
2022/06/18 04:26:09;;;;;;;21.08;13.48;;;17.80;99.90;;;;;;4945539;29;20178;-81
2022/06/18 04:28:35;;;;;;;20.45;13.77;;;17.80;99.90;;;;;;4928145;29;20070;-80
2022/06/18 04:31:01;;;;;;;27.77;14.70;;;17.90;99.90;;;;;;4943502;29;20413;-81
2022/06/18 04:33:27;;;;;;;24.27;14.75;;;18.00;99.90;;;;;;4924738;28;20047;-79
2022/06/18 04:35:55;;;;;;;20.98;13.65;;;18.40;99.90;;;;;;4931025;29;20035;-80
2022/06/18 04:38:21;;;;;;;21.95;14.05;;;18.90;99.90;;;;;;4940939;28;20044;-81
2022/06/18 04:40:50;;;;;;;23.38;14.20;;;19.50;99.90;;;;;;4927715;29;20178;-80
2022/06/18 04:43:17;;;;;;;18.52;12.77;;;20.00;99.90;;;;;;4941479;28;20063;-81
2022/06/18 04:45:43;;;;;;;22.90;13.57;;;20.50;99.90;;;;;;4944298;29;20062;-80
2022/06/18 04:48:13;;;;;;;24.88;12.80;;;21.00;99.90;;;;;;4923725;29;20031;-81
2022/06/18 04:50:40;;;;;;;21.25;13.80;;;21.50;99.90;;;;;;4928072;29;20460;-82
2022/06/18 04:53:08;;;;;;;24.17;12.68;;;22.00;99.90;;;;;;4927551;29;20084;-81
2022/06/18 04:55:34;;;;;;;21.15;12.77;;;22.40;99.90;;;;;;4946898;29;20241;-81
2022/06/18 04:58:00;;;;;;;21.90;11.95;;;22.80;99.90;;;;;;4930119;29;20412;-81
2022/06/18 05:00:26;;;;;;;22.35;12.57;;;23.20;99.90;;;;;;4925151;29;20051;-81
2022/06/18 05:02:52;;;;;;;21.27;12.30;;;23.60;99.90;;;;;;4931150;29;20471;-81
2022/06/18 05:05:22;;;;;;;19.10;12.00;;;23.90;99.90;;;;;;4942551;28;20043;-82
2022/06/18 05:07:48;;;;;;;24.00;12.43;;;24.20;99.90;;;;;;4927690;28;20058;-82
2022/06/18 05:10:14;;;;;;;26.17;13.50;;;24.50;99.90;;;;;;4915145;29;20608;-83
2022/06/18 05:12:40;;;;;;;22.25;12.80;;;24.80;99.90;;;;;;4916542;29;20308;-81
2022/06/18 05:15:08;;;;;;;21.80;11.95;;;25.00;99.90;;;;;;4928696;29;20307;-81
2022/06/18 05:17:38;;;;;;;18.08;11.20;;;25.20;99.90;;;;;;4951482;28;20089;-80
2022/06/18 05:20:05;;;;;;;23.90;10.60;;;25.40;99.90;;;;;;4935473;28;20130;-82
2022/06/18 05:22:31;;;;;;;21.20;10.68;;;25.70;99.90;;;;;;4939879;28;20070;-84
2022/06/18 05:24:57;;;;;;;18.55;10.27;;;25.90;99.90;;;;;;4942999;28;20126;-83
2022/06/18 05:27:30;;;;;;;20.33;11.07;;;26.10;99.90;;;;;;4923402;29;20619;-81
2022/06/18 05:29:56;;;;;;;22.55;11.20;;;26.20;99.90;;;;;;4936104;29;20091;-82
2022/06/18 05:32:21;;;;;;;21.45;11.70;;;26.30;99.90;;;;;;4930181;29;20051;-81
2022/06/18 05:34:47;;;;;;;16.98;10.32;;;25.60;99.90;;;;;;4934821;29;20041;-82
2022/06/18 05:37:15;;;;;;;20.08;12.20;;;24.90;99.90;;;;;;4926454;29;20039;-81
2022/06/18 05:39:41;;;;;;;25.75;12.65;;;24.30;99.90;;;;;;4938445;29;20047;-81
2022/06/18 05:42:11;;;;;;;19.90;10.60;;;23.70;99.90;;;;;;4932765;29;20047;-81
2022/06/18 05:44:37;;;;;;;22.30;11.15;;;23.20;99.90;;;;;;4925575;29;20570;-82
2022/06/18 05:47:12;;;;;;;23.13;10.73;;;22.90;99.90;;;;;;4910933;29;20138;-81
2022/06/18 05:49:37;;;;;;;16.05;10.32;;;22.60;99.90;;;;;;4926938;29;20050;-82
2022/06/18 05:52:03;;;;;;;18.40;10.30;;;22.40;99.90;;;;;;4936120;29;20048;-81
2022/06/18 05:54:29;;;;;;;22.27;10.63;;;22.20;99.90;;;;;;4931639;29;20058;-81
2022/06/18 05:56:54;;;;;;;22.30;9.55;;;22.10;99.90;;;;;;4911466;29;20095;-81
2022/06/18 05:59:20;;;;;;;19.80;10.27;;;22.60;99.90;;;;;;4921055;29;20068;-80
2022/06/18 06:01:46;;;;;;;25.85;10.32;;;23.00;99.90;;;;;;4911878;29;20054;-80
2022/06/18 06:04:11;;;;;;;22.80;9.85;;;23.80;99.90;;;;;;4929805;29;20887;-80
2022/06/18 06:06:37;;;;;;;15.13;7.90;;;24.50;99.90;;;;;;4934688;29;20130;-80
2022/06/18 06:09:04;;;;;;;16.40;7.45;;;25.30;99.90;;;;;;4942356;28;20047;-80
2022/06/18 06:11:29;;;;;;;18.50;9.77;;;25.80;99.90;;;;;;4946859;29;20039;-81
2022/06/18 06:14:01;;;;;;;20.63;9.20;;;26.20;99.90;;;;;;4922510;29;20441;-81
2022/06/18 06:16:29;;;;;;;19.92;8.32;;;25.90;99.90;;;;;;4942742;29;20078;-80
2022/06/18 06:18:54;;;;;;;16.55;8.18;;;25.60;99.90;;;;;;4939566;28;20116;-81
2022/06/18 06:21:20;;;;;;;16.60;7.78;;;25.30;99.90;;;;;;4922078;29;20079;-81
2022/06/18 06:23:51;;;;;;;15.82;8.80;;;25.50;99.90;;;;;;4926043;29;21431;-80
2022/06/18 06:26:27;;;;;;;;;;;24.70;99.90;;;;;;4927970;29;20047;-79
2022/06/18 06:28:56;;;;;;;17.75;9.23;;;24.10;99.90;;;;;;4936799;28;20038;-80
2022/06/18 06:31:21;;;;;;;15.73;8.02;;;23.60;99.90;;;;;;4929449;29;20512;-79
2022/06/18 06:33:48;;;;;;;14.02;8.05;;;23.20;99.90;;;;;;4923418;29;20043;-81
2022/06/18 06:36:14;;;;;;;16.40;7.95;;;22.90;99.90;;;;;;4926970;29;20062;-80
2022/06/18 06:38:39;;;;;;;16.23;9.32;;;22.70;99.90;;;;;;4940003;28;20039;-82
2022/06/18 06:41:12;;;;;;;18.30;9.23;;;22.60;99.90;;;;;;4946125;28;20039;-79
2022/06/18 06:43:41;;;;;;;20.25;9.07;;;22.40;99.90;;;;;;4940385;29;20420;-79
2022/06/18 06:46:11;;;;;;;16.90;8.07;;;22.30;99.90;;;;;;4941702;29;20682;-81
2022/06/18 06:48:36;;;;;;;14.60;7.90;;;22.20;99.90;;;;;;4940624;29;20043;-79
2022/06/18 06:51:04;;;;;;;16.52;8.25;;;22.10;99.90;;;;;;4938158;29;20051;-79
2022/06/18 06:53:30;;;;;;;16.83;8.02;;;22.10;99.90;;;;;;4939964;28;20123;-80
2022/06/18 06:58:39;;;;;;;15.52;6.70;;;22.00;99.90;;;;;;4931598;29;20291;-78
2022/06/18 07:01:06;;;;;;;11.90;5.68;;;21.90;99.90;;;;;;4906224;29;20044;-79
2022/06/18 07:03:33;;;;;;;17.02;6.10;;;21.90;99.90;;;;;;4939962;29;20561;-79
2022/06/18 07:06:01;;;;;;;14.13;6.55;;;21.90;99.90;;;;;;4921662;29;20533;-79
2022/06/18 07:08:27;;;;;;;17.90;7.22;;;22.10;99.90;;;;;;4932286;29;20048;-80
2022/06/18 07:10:53;;;;;;;16.58;6.28;;;22.10;99.90;;;;;;4942238;28;20042;-79
2022/06/18 07:13:19;;;;;;;16.67;6.95;;;22.30;99.90;;;;;;4927797;29;20051;-79
2022/06/18 07:15:46;;;;;;;18.92;7.57;;;22.40;99.90;;;;;;4926946;29;20062;-77
2022/06/18 07:18:19;;;;;;;16.60;7.30;;;22.70;99.90;;;;;;4946478;29;20370;-77
2022/06/18 07:20:45;;;;;;;15.52;6.38;;;22.90;99.90;;;;;;4934471;29;20047;-79
2022/06/18 07:23:11;;;;;;;14.15;6.05;;;23.30;99.90;;;;;;4965926;28;20020;-79
2022/06/18 07:25:37;;;;;;;16.42;6.40;;;23.60;99.90;;;;;;4966926;28;20531;-78
2022/06/18 07:28:04;;;;;;;11.75;4.93;;;23.70;99.90;;;;;;4953341;29;20047;-79
2022/06/18 07:30:30;;;;;;;12.82;5.15;;;23.80;99.90;;;;;;4944660;29;20122;-80
2022/06/18 07:32:55;;;;;;;15.88;4.75;;;24.00;99.90;;;;;;4947251;29;20544;-80
2022/06/18 07:35:25;;;;;;;15.90;4.93;;;24.20;99.90;;;;;;4922020;29;20055;-78
2022/06/18 07:37:51;;;;;;;11.07;3.75;;;24.40;99.90;;;;;;4931290;29;20043;-76
2022/06/18 07:40:17;;;;;;;9.32;4.25;;;24.60;99.90;;;;;;4942928;28;20043;-74
2022/06/18 07:42:45;;;;;;;10.35;3.83;;;24.80;99.90;;;;;;4933772;29;20047;-78
2022/06/18 07:45:16;;;;;;;11.95;3.78;;;25.00;99.90;;;;;;4940939;29;20130;-76
2022/06/18 07:47:42;;;;;;;9.10;4.03;;;25.20;99.90;;;;;;4921641;29;20051;-76
2022/06/18 07:50:08;;;;;;;11.10;3.30;;;25.20;99.90;;;;;;4932353;29;20047;-75
2022/06/18 07:52:34;;;;;;;8.60;2.70;;;25.20;99.90;;;;;;4925200;29;20058;-78
2022/06/18 07:55:00;;;;;;;9.93;3.10;;;25.10;99.90;;;;;;4929306;29;20048;-77
2022/06/18 07:57:25;;;;;;;8.13;2.83;;;25.10;99.90;;;;;;4950141;28;20036;-77
2022/06/18 07:59:51;;;;;;;9.13;3.05;;;25.20;99.90;;;;;;4943754;29;20043;-77
2022/06/18 08:02:18;;;;;;;7.03;2.38;;;25.40;99.90;;;;;;4934181;29;20044;-75
2022/06/18 08:04:44;;;;;;;10.98;2.97;;;25.50;99.90;;;;;;4927260;29;20134;-77
2022/06/18 08:07:09;;;;;;;7.85;2.42;;;25.70;99.90;;;;;;4941715;29;20130;-77
2022/06/18 08:09:35;;;;;;;6.97;2.03;;;25.80;99.90;;;;;;4934588;29;20047;-78
2022/06/18 08:12:02;;;;;;;7.13;2.13;;;25.90;99.90;;;;;;4916094;29;20050;-81
2022/06/18 08:14:28;;;;;;;6.63;2.15;;;26.00;99.90;;;;;;4945336;29;20425;-80
2022/06/18 08:16:53;;;;;;;6.00;1.70;;;26.10;99.90;;;;;;4926615;29;20047;-80
2022/06/18 08:19:19;;;;;;;6.05;1.98;;;26.20;99.90;;;;;;4927522;29;20100;-81
2022/06/18 08:21:45;;;;;;;7.95;1.73;;;26.30;99.90;;;;;;4940721;29;20043;-79
2022/06/18 08:24:15;;;;;;;4.28;1.70;;;26.40;99.90;;;;;;4947807;28;20436;-79
2022/06/18 08:26:43;;;;;;;5.45;1.75;;;26.30;99.90;;;;;;4926889;29;20063;-78
2022/06/18 08:29:13;;;;;;;7.82;2.05;;;26.20;99.90;;;;;;4930678;29;20114;-79
2022/06/18 08:31:39;;;;;;;5.35;1.70;;;26.00;99.90;;;;;;4932551;29;20413;-80
2022/06/18 08:34:05;;;;;;;5.22;1.80;;;25.80;99.90;;;;;;4948971;28;20043;-78
2022/06/18 08:36:32;;;;;;;8.38;1.70;;;25.60;99.90;;;;;;4928014;29;20142;-80
2022/06/18 08:38:58;;;;;;;6.88;1.88;;;25.50;99.90;;;;;;4925490;29;20044;-79
2022/06/18 08:41:42;;;;;;;6.38;2.00;;;25.70;99.90;;;;;;4926523;29;20047;-80
2022/06/18 08:44:19;;;;;;;7.45;2.17;;;25.90;99.90;;;;;;4928546;29;20090;-81
2022/06/18 08:47:16;;;;;;;7.70;1.90;;;25.70;99.90;;;;;;4931380;29;20134;-81
2022/06/18 08:49:48;;;;;;;6.53;1.83;;;25.60;99.90;;;;;;4924827;29;20043;-79
2022/06/18 08:52:32;;;;;;;7.88;2.25;;;25.70;99.90;;;;;;4933892;29;20097;-78
2022/06/18 08:55:10;;;;;;;6.13;2.58;;;25.90;99.90;;;;;;4936488;28;20489;-82
2022/06/18 08:57:45;;;;;;;6.25;1.95;;;26.10;99.90;;;;;;4943549;29;20513;-81
2022/06/18 09:00:11;;;;;;;8.60;2.05;;;26.00;99.90;;;;;;4933216;29;20453;-84
2022/06/18 09:02:54;;;;;;;5.03;1.83;;;26.00;99.90;;;;;;4911741;29;20055;-78
2022/06/18 09:05:53;;;;;;;5.82;1.90;;;26.00;99.90;;;;;;4947223;29;20039;-82
2022/06/18 09:08:40;;;;;;;8.80;3.45;;;26.00;99.90;;;;;;4931543;29;20392;-81
2022/06/18 09:11:21;;;;;;;11.77;3.22;;;26.20;99.90;;;;;;4949731;29;20045;-80
2022/06/18 09:14:13;;;;;;;9.50;2.00;;;26.30;99.90;;;;;;4934516;29;20055;-80
2022/06/18 09:16:52;;;;;;;6.53;1.90;;;26.30;99.90;;;;;;4934563;29;20167;-82
2022/06/18 09:19:19;;;;;;;7.10;1.65;;;26.40;99.90;;;;;;4927941;29;20074;-80
2022/06/18 09:22:00;;;;;;;7.75;1.90;;;26.40;99.90;;;;;;4926257;29;20043;-79
2022/06/18 09:24:36;;;;;;;6.22;1.77;;;26.30;99.90;;;;;;4950335;29;20636;-79
2022/06/18 09:27:08;;;;;;;4.75;1.25;;;26.30;99.90;;;;;;4938684;29;20059;-81
2022/06/18 09:29:48;;;;;;;6.03;1.50;;;26.30;99.90;;;;;;4920228;29;20043;-80
2022/06/18 09:32:30;;;;;;;6.10;1.80;;;26.30;99.90;;;;;;4941921;29;20439;-79
2022/06/18 09:35:03;;;;;;;4.30;1.25;;;26.50;99.90;;;;;;4951615;29;20031;-80
2022/06/18 09:37:43;;;;;;;4.18;1.27;;;26.70;99.90;;;;;;4941763;28;20049;-81
2022/06/18 09:40:18;;;;;;;4.45;1.60;;;26.90;99.90;;;;;;4941899;29;20366;-80
2022/06/18 09:43:01;;;;;;;9.35;1.80;;;27.00;99.90;;;;;;4942837;28;20115;-80
2022/06/18 09:45:37;;;;;;;5.72;1.45;;;27.00;99.90;;;;;;4913945;29;20046;-81
2022/06/18 09:48:04;;;;;;;5.20;1.40;;;27.00;99.90;;;;;;4938595;29;20049;-77
2022/06/18 09:50:40;;;;;;;5.57;1.60;;;26.70;99.90;;;;;;4941528;28;20050;-81
2022/06/18 09:53:32;;;;;;;5.38;1.45;;;26.60;99.90;;;;;;4924582;29;20054;-80
2022/06/18 09:56:08;;;;;;;4.00;1.25;;;26.60;99.90;;;;;;4911891;29;20137;-78
2022/06/18 09:58:48;;;;;;;4.57;1.50;;;26.90;99.90;;;;;;4940622;28;20537;-74
2022/06/18 10:01:21;;;;;;;3.55;1.25;;;26.70;99.90;;;;;;4915500;29;20059;-70
2022/06/18 10:09:24;;;;;;;5.35;1.30;;;26.00;99.90;;;;;;4940025;29;20078;-72
2022/06/18 10:11:50;;;;;;;5.80;1.77;;;25.90;99.90;;;;;;4938046;29;20064;-74
2022/06/18 10:14:19;;;;;;;5.68;1.30;;;25.70;99.90;;;;;;4918544;29;20051;-73
2022/06/18 10:16:57;;;;;;;5.63;1.35;;;25.40;99.90;;;;;;4925773;29;20142;-69
2022/06/18 10:19:59;;;;;;;5.18;1.30;;;25.50;99.90;;;;;;4914864;28;20044;-69
2022/06/18 10:22:37;;;;;;;4.07;1.10;;;25.70;99.90;;;;;;4924351;29;20102;-71
2022/06/18 10:25:29;;;;;;;4.72;1.17;;;25.70;99.90;;;;;;4916903;29;20047;-70
2022/06/18 10:28:09;;;;;;;7.47;1.80;;;25.60;99.90;;;;;;4915081;29;20056;-70
2022/06/18 10:30:53;;;;;;;4.20;1.20;;;25.80;99.90;;;;;;4940229;29;20131;-71
2022/06/18 10:33:49;;;;;;;5.90;1.40;;;26.20;99.90;;;;;;4921005;29;20134;-71
2022/06/18 10:36:38;;;;;;;5.88;1.45;;;26.20;99.90;;;;;;4914576;29;20051;-71
2022/06/18 10:39:19;;;;;;;5.38;1.20;;;26.30;99.90;;;;;;4919257;29;20051;-72
2022/06/18 10:41:59;;;;;;;2.70;1.00;;;26.40;99.90;;;;;;4939296;29;20051;-71
2022/06/18 10:44:50;;;;;;;6.00;1.35;;;26.70;99.90;;;;;;4933390;29;20127;-71
2022/06/18 10:47:17;;;;;;;4.30;1.10;;;26.90;99.90;;;;;;4935233;29;20046;-73
2022/06/18 10:49:45;;;;;;;3.05;0.95;;;26.80;99.90;;;;;;4930736;29;20134;-73
2022/06/18 10:52:24;;;;;;;4.15;1.10;;;26.60;99.90;;;;;;4916904;29;20051;-72
2022/06/18 10:54:51;;;;;;;4.53;1.10;;;26.50;99.90;;;;;;4925506;29;20054;-71
2022/06/18 10:57:23;;;;;;;2.33;1.00;;;26.60;99.90;;;;;;4913721;29;20582;-71
2022/06/18 10:59:49;;;;;;;4.38;0.98;;;26.80;99.90;;;;;;4938282;29;20372;-71
2022/06/18 11:02:36;;;;;;;4.80;1.05;;;27.00;99.90;;;;;;4941597;28;20035;-71
2022/06/18 11:05:12;;;;;;;2.45;0.80;;;27.00;99.90;;;;;;4936813;29;20047;-71
2022/06/18 11:07:38;;;;;;;4.78;1.40;;;27.10;99.90;;;;;;4937854;29;20505;-71
2022/06/18 11:10:07;;;;;;;3.88;0.90;;;27.20;99.90;;;;;;4942519;28;20102;-70
2022/06/18 11:12:38;;;;;;;4.25;1.23;;;27.30;99.90;;;;;;4928748;29;20138;-71
2022/06/18 11:15:24;;;;;;;3.55;0.77;;;27.50;99.90;;;;;;4940130;29;20444;-70
2022/06/18 11:17:50;;;;;;;4.47;1.00;;;27.60;99.90;;;;;;4916879;29;20083;-71
2022/06/18 11:20:17;;;;;;;3.05;1.00;;;27.50;99.90;;;;;;4946580;29;20503;-71
2022/06/18 11:22:49;;;;;;;3.33;1.00;;;27.40;99.90;;;;;;4916274;29;20150;-72
2022/06/18 11:25:44;;;;;;;4.60;1.08;;;27.30;99.90;;;;;;4940034;29;20495;-71
2022/06/18 11:28:19;;;;;;;3.33;1.00;;;27.20;99.90;;;;;;4939609;29;20114;-72
2022/06/18 11:30:47;;;;;;;3.08;0.90;;;27.10;99.90;;;;;;4918069;29;20058;-73
2022/06/18 11:33:35;;;;;;;2.60;0.90;;;26.90;99.70;;;;;;4924321;29;20048;-73
2022/06/18 11:36:14;;;;;;;2.42;0.70;;;26.80;99.90;;;;;;4939733;29;20228;-73
2022/06/18 11:38:49;;;;;;;2.33;0.90;;;26.80;99.90;;;;;;4930064;29;20556;-73
2022/06/18 11:41:18;;;;;;;1.90;0.70;;;27.00;99.90;;;;;;4917945;29;20142;-72
2022/06/18 11:43:55;;;;;;;3.95;0.93;;;27.00;99.90;;;;;;4937669;29;20819;-72
2022/06/18 11:46:28;;;;;;;4.20;0.98;;;26.90;99.90;;;;;;4921678;29;20549;-73
2022/06/18 11:48:56;;;;;;;5.30;1.00;;;26.90;99.90;;;;;;4937273;28;20047;-73
2022/06/18 11:51:44;;;;;;;2.50;0.65;;;26.90;99.90;;;;;;4916004;29;20083;-73
2022/06/18 11:54:28;;;;;;;3.85;1.10;;;27.00;99.90;;;;;;4939500;28;20211;-72
2022/06/18 11:57:04;;;;;;;3.45;0.90;;;27.10;99.90;;;;;;4933644;28;20301;-73
2022/06/18 12:00:02;;;;;;;2.55;0.93;;;27.00;99.90;;;;;;4912336;29;20082;-72
2022/06/18 12:03:09;;;;;;;3.60;0.98;;;26.70;99.90;;;;;;4903634;29;20297;-73
2022/06/18 12:05:46;;;;;;;4.50;1.20;;;26.70;99.90;;;;;;4916645;29;20083;-72
2022/06/18 12:08:17;;;;;;;4.80;0.98;;;26.50;99.90;;;;;;4920112;29;20053;-73
2022/06/18 12:11:11;;;;;;;6.93;1.40;;;26.40;99.90;;;;;;4917378;29;20098;-73
2022/06/18 12:13:43;;;;;;;9.27;2.10;;;26.30;99.90;;;;;;4921742;29;20062;-73
2022/06/18 12:16:35;;;;;;;5.82;1.60;;;26.20;99.90;;;;;;4933680;28;20063;-73
2022/06/18 12:19:12;;;;;;;5.75;1.50;;;25.70;99.90;;;;;;4916087;29;20106;-72
2022/06/18 12:21:42;;;;;;;6.88;1.80;;;25.50;99.90;;;;;;4917992;29;20052;-72
2022/06/18 12:24:26;;;;;;;6.90;1.50;;;25.30;99.90;;;;;;4935691;28;20048;-73
2022/06/18 12:27:18;;;;;;;6.68;1.90;;;25.20;99.90;;;;;;4925105;29;20480;-75
2022/06/18 12:30:01;;;;;;;7.10;1.73;;;25.10;99.90;;;;;;4938176;28;20055;-76
2022/06/18 12:32:55;;;;;;;6.57;1.77;;;25.00;99.90;;;;;;4936944;29;20759;-73
2022/06/18 12:35:59;;;;;;;7.13;1.80;;;24.90;99.90;;;;;;4921795;29;20471;-73
2022/06/18 12:38:41;;;;;;;7.28;1.75;;;24.90;99.90;;;;;;4940641;28;20050;-72
2022/06/18 12:41:41;;;;;;;6.82;1.75;;;24.80;99.90;;;;;;4924430;28;20643;-73
2022/06/18 12:44:32;;;;;;;9.32;2.20;;;24.80;99.90;;;;;;4925268;29;20039;-73
2022/06/18 12:47:14;;;;;;;8.75;2.20;;;24.70;99.90;;;;;;4923871;29;20574;-74
2022/06/18 12:49:58;;;;;;;11.27;2.08;;;24.50;99.90;;;;;;4941065;28;20050;-74
2022/06/18 12:53:12;;;;;;;8.82;1.92;;;24.50;99.90;;;;;;4922673;29;20517;-75
2022/06/18 12:55:56;;;;;;;11.57;2.47;;;24.40;99.90;;;;;;4885142;29;20053;-73
2022/06/18 12:58:42;;;;;;;12.82;2.40;;;24.50;99.90;;;;;;4869075;29;20097;-72
2022/06/18 13:01:19;;;;;;;9.07;1.55;;;24.70;99.90;;;;;;4928896;28;20055;-74
2022/06/18 13:03:44;;;;;;;9.93;2.05;;;24.80;99.90;;;;;;4924053;29;20047;-73
2022/06/18 13:06:23;;;;;;;8.82;1.92;;;24.80;99.90;;;;;;4941797;29;20046;-74
2022/06/18 13:09:16;;;;;;;9.80;1.98;;;24.60;99.90;;;;;;4938831;29;20058;-73
2022/06/18 13:12:07;;;;;;;8.02;1.90;;;24.40;99.90;;;;;;4925504;28;20809;-71
2022/06/18 13:15:01;;;;;;;10.00;2.15;;;24.20;99.90;;;;;;4942864;28;20138;-73
2022/06/18 13:17:34;;;;;;;9.65;2.28;;;23.90;99.90;;;;;;4923488;29;20469;-72
2022/06/18 13:20:13;;;;;;;12.52;2.40;;;23.60;99.90;;;;;;4927680;28;20421;-73
2022/06/18 13:22:39;;;;;;;10.15;1.98;;;23.30;99.90;;;;;;4942923;28;20047;-73